Time;durP1;ratioP1;P1;durP2;ratioP2;P2;SDS_P1;SDS_P2;PMS_P1;PMS_P2;Temp;Humidity;BMP_temperature;BMP_pressure;BME280_temperature;BME280_humidity;BME280_pressure;Samples;Min_cycle;Max_cycle;Signal;HPM_P1;HPM_P2
2023/07/13 00:00:32;;;;;;;7.20;4.63;;;15.20;99.90;;;;;;4992023;28;20455;-59
2023/07/13 00:02:57;;;;;;;4.70;4.30;;;15.20;99.90;;;;;;4992213;28;20426;-59
2023/07/13 00:05:23;;;;;;;7.57;4.53;;;15.10;99.90;;;;;;4992080;28;20462;-57
2023/07/13 00:07:50;;;;;;;8.63;4.10;;;15.10;99.90;;;;;;4991633;28;20283;-58
2023/07/13 00:10:17;;;;;;;7.90;4.87;;;15.10;99.90;;;;;;4991703;28;20846;-58
2023/07/13 00:12:43;;;;;;;6.90;4.77;;;15.10;99.90;;;;;;4991878;28;20418;-59
2023/07/13 00:15:22;;;;;;;6.03;4.77;;;15.00;99.90;;;;;;4991829;28;20506;-59
2023/07/13 00:17:49;;;;;;;8.10;5.37;;;15.00;99.90;;;;;;4992093;28;20438;-58
2023/07/13 00:20:15;;;;;;;8.17;5.30;;;15.00;99.90;;;;;;4992025;28;20497;-57
2023/07/13 00:22:41;;;;;;;8.80;5.80;;;14.90;99.90;;;;;;4991520;28;20909;-58
2023/07/13 00:25:08;;;;;;;6.57;5.20;;;14.90;99.90;;;;;;4991539;28;20214;-57
2023/07/13 00:27:34;;;;;;;6.87;5.20;;;14.90;99.90;;;;;;4991674;28;20197;-58
2023/07/13 00:30:00;;;;;;;7.60;6.00;;;14.80;99.90;;;;;;4991835;28;20422;-56
2023/07/13 00:32:25;;;;;;;9.80;6.27;;;14.80;99.90;;;;;;4991290;28;20207;-56
2023/07/13 00:34:52;;;;;;;9.37;6.73;;;14.80;99.90;;;;;;4991279;28;20188;-57
2023/07/13 00:37:17;;;;;;;7.27;5.47;;;14.70;99.90;;;;;;4991368;28;20202;-57
2023/07/13 00:39:43;;;;;;;11.40;6.90;;;14.70;99.90;;;;;;4991385;28;20418;-57
2023/07/13 00:42:09;;;;;;;11.07;6.57;;;14.70;99.90;;;;;;4991192;28;20186;-57
2023/07/13 00:44:35;;;;;;;10.23;6.53;;;14.70;99.90;;;;;;4991382;28;20301;-55
2023/07/13 00:47:01;;;;;;;12.23;6.67;;;14.70;99.90;;;;;;4991557;28;20196;-56
2023/07/13 00:49:30;;;;;;;9.60;6.43;;;14.70;99.90;;;;;;4990904;28;20415;-55
2023/07/13 00:52:08;;;;;;;13.40;6.90;;;14.70;99.90;;;;;;4991234;28;20196;-56
2023/07/13 00:54:39;;;;;;;7.27;6.57;;;14.60;99.90;;;;;;4991158;28;20608;-56
2023/07/13 00:57:09;;;;;;;11.43;7.57;;;14.60;99.90;;;;;;4991061;28;20415;-55
2023/07/13 00:59:36;;;;;;;11.20;7.40;;;14.60;99.90;;;;;;4990105;28;20416;-55
2023/07/13 01:02:03;;;;;;;13.37;7.90;;;14.60;99.90;;;;;;4991330;28;20455;-56
2023/07/13 01:04:29;;;;;;;9.43;6.63;;;14.60;99.90;;;;;;4990879;28;20458;-56
2023/07/13 01:06:56;;;;;;;14.40;7.73;;;14.60;99.90;;;;;;4991081;28;20462;-56
2023/07/13 01:09:22;;;;;;;12.50;7.57;;;14.60;99.90;;;;;;4991013;28;20550;-56
2023/07/13 01:11:48;;;;;;;14.40;8.07;;;14.60;99.90;;;;;;4991208;28;20969;-56
2023/07/13 01:14:14;;;;;;;11.00;6.90;;;14.60;99.90;;;;;;4990901;28;20640;-56
2023/07/13 01:16:42;;;;;;;9.47;7.60;;;14.70;99.90;;;;;;4990661;28;21046;-56
2023/07/13 01:19:15;;;;;;;17.73;9.07;;;14.60;99.90;;;;;;4990885;28;20415;-55
2023/07/13 01:21:42;;;;;;;12.37;8.10;;;14.70;99.90;;;;;;4990897;28;20416;-57
2023/07/13 01:24:09;;;;;;;15.30;8.57;;;14.80;99.90;;;;;;4990926;28;20438;-57
2023/07/13 01:26:34;;;;;;;13.70;9.03;;;14.80;99.90;;;;;;4990856;28;20451;-57
2023/07/13 01:29:00;;;;;;;11.40;8.97;;;14.90;99.90;;;;;;4990868;28;20418;-56
2023/07/13 01:31:26;;;;;;;11.03;7.70;;;15.00;99.90;;;;;;4991209;28;20188;-58
2023/07/13 01:33:52;;;;;;;11.57;8.87;;;15.10;99.90;;;;;;4990809;28;20211;-59
2023/07/13 01:36:17;;;;;;;11.33;8.40;;;15.10;99.90;;;;;;4990866;28;20699;-58
2023/07/13 01:38:43;;;;;;;12.03;8.40;;;15.10;99.90;;;;;;4990558;28;20188;-58
2023/07/13 01:41:08;;;;;;;11.73;8.40;;;15.10;99.90;;;;;;4990872;28;20219;-57
2023/07/13 01:43:34;;;;;;;9.47;7.83;;;15.10;99.90;;;;;;4990743;28;20667;-57
2023/07/13 01:45:59;;;;;;;9.53;7.73;;;15.20;99.90;;;;;;4994107;28;20251;-58
2023/07/13 01:48:25;;;;;;;10.77;8.00;;;15.10;99.90;;;;;;4993668;28;20194;-58
2023/07/13 01:50:51;;;;;;;15.50;8.70;;;15.10;99.90;;;;;;4993735;28;20179;-57
2023/07/13 01:53:16;;;;;;;12.20;8.37;;;15.10;99.90;;;;;;4993776;28;20296;-58
2023/07/13 01:55:42;;;;;;;11.33;8.07;;;15.10;99.90;;;;;;4993407;28;20238;-58
2023/07/13 01:58:07;;;;;;;8.73;7.60;;;15.00;99.90;;;;;;4993634;28;20845;-61
2023/07/13 02:00:33;;;;;;;9.97;7.63;;;15.00;99.90;;;;;;4993731;28;20180;-59
2023/07/13 02:02:59;;;;;;;12.47;8.30;;;14.90;99.90;;;;;;4994181;28;20187;-58
2023/07/13 02:05:25;;;;;;;14.70;8.87;;;14.90;99.90;;;;;;4993708;28;20556;-59
2023/07/13 02:07:50;;;;;;;9.90;8.30;;;14.80;99.90;;;;;;4994026;28;20194;-58
2023/07/13 02:10:16;;;;;;;13.10;9.03;;;14.80;99.90;;;;;;4993411;28;20231;-58
2023/07/13 02:12:44;;;;;;;11.93;8.33;;;14.90;99.90;;;;;;4993724;28;20187;-57
2023/07/13 02:15:09;;;;;;;11.37;9.33;;;14.90;99.90;;;;;;4993534;28;20534;-57
2023/07/13 02:17:36;;;;;;;11.00;8.30;;;14.90;99.90;;;;;;4993219;28;20503;-58
2023/07/13 02:20:03;;;;;;;10.60;8.80;;;15.00;99.90;;;;;;4994105;28;20476;-59
2023/07/13 02:22:30;;;;;;;20.57;9.37;;;15.10;99.90;;;;;;4993358;28;20457;-58
2023/07/13 02:24:55;;;;;;;16.93;9.20;;;15.10;99.90;;;;;;4993747;28;20489;-58
2023/07/13 02:27:21;;;;;;;8.90;8.00;;;15.00;99.90;;;;;;4993564;28;20610;-59
2023/07/13 02:29:46;;;;;;;21.90;9.90;;;15.00;99.90;;;;;;4993677;28;20179;-57
2023/07/13 02:32:12;;;;;;;21.17;9.30;;;15.00;99.90;;;;;;4993903;28;20190;-60
2023/07/13 02:34:38;;;;;;;10.50;9.03;;;15.00;99.90;;;;;;4993115;28;20546;-59
2023/07/13 02:37:04;;;;;;;15.97;9.60;;;14.90;99.90;;;;;;4993310;28;20192;-59
2023/07/13 02:39:32;;;;;;;12.23;9.07;;;14.90;99.90;;;;;;4993521;28;20206;-60
2023/07/13 02:41:58;;;;;;;10.63;8.83;;;14.90;99.90;;;;;;4993395;28;20192;-59
2023/07/13 02:44:24;;;;;;;11.73;9.20;;;14.90;99.90;;;;;;4992815;28;20476;-59
2023/07/13 02:46:49;;;;;;;12.00;9.30;;;15.00;99.90;;;;;;4993460;28;20506;-59
2023/07/13 02:49:15;;;;;;;10.20;8.80;;;14.90;99.90;;;;;;4993459;28;20202;-58
2023/07/13 02:51:40;;;;;;;12.50;8.97;;;14.90;99.90;;;;;;4992722;28;20206;-59
2023/07/13 02:54:08;;;;;;;17.53;8.97;;;14.80;99.90;;;;;;4992705;28;20243;-59
2023/07/13 02:56:34;;;;;;;12.70;8.70;;;14.80;99.90;;;;;;4993182;28;20196;-59
2023/07/13 02:59:00;;;;;;;12.47;9.17;;;14.80;99.90;;;;;;4993009;28;20423;-59
2023/07/13 03:01:26;;;;;;;11.37;9.10;;;14.80;99.90;;;;;;4992823;28;20858;-59
2023/07/13 03:03:52;;;;;;;15.50;9.70;;;14.80;99.90;;;;;;4992893;28;20461;-59
2023/07/13 03:06:18;;;;;;;13.43;10.03;;;14.80;99.90;;;;;;4993001;28;20272;-57
2023/07/13 03:08:44;;;;;;;13.00;9.27;;;14.70;99.90;;;;;;4992867;28;20470;-57
2023/07/13 03:11:14;;;;;;;11.90;8.77;;;14.60;99.90;;;;;;4992776;28;20780;-59
2023/07/13 03:13:41;;;;;;;23.10;9.57;;;14.60;99.90;;;;;;4992428;28;20418;-58
2023/07/13 03:16:07;;;;;;;12.30;9.17;;;14.70;99.90;;;;;;4992932;28;20464;-58
2023/07/13 03:18:33;;;;;;;14.27;9.00;;;14.60;99.90;;;;;;4992769;28;21022;-59
2023/07/13 03:20:59;;;;;;;13.50;9.83;;;14.70;99.90;;;;;;4992742;28;20418;-59
2023/07/13 03:23:25;;;;;;;13.23;10.30;;;14.70;99.90;;;;;;4992623;28;20774;-59
2023/07/13 03:25:50;;;;;;;13.57;9.07;;;14.60;99.90;;;;;;4993009;28;20214;-60
2023/07/13 03:28:16;;;;;;;12.30;8.90;;;14.60;99.90;;;;;;4992415;28;20190;-59
2023/07/13 03:30:42;;;;;;;13.90;7.97;;;14.50;99.90;;;;;;4992537;28;20183;-59
2023/07/13 03:33:08;;;;;;;13.60;9.30;;;14.50;99.90;;;;;;4992653;28;20209;-59
2023/07/13 03:35:34;;;;;;;15.00;9.53;;;14.40;99.90;;;;;;4992940;28;20619;-59
2023/07/13 03:38:00;;;;;;;12.80;9.47;;;14.40;99.90;;;;;;4992227;28;20420;-61
2023/07/13 03:40:28;;;;;;;12.63;8.83;;;14.40;99.90;;;;;;4992552;28;20422;-59
2023/07/13 03:42:54;;;;;;;12.23;8.47;;;14.40;99.90;;;;;;4992238;28;20271;-60
2023/07/13 03:45:19;;;;;;;12.30;9.10;;;14.40;99.90;;;;;;4992011;28;20945;-58
2023/07/13 03:47:45;;;;;;;8.83;7.90;;;14.50;99.90;;;;;;4992288;28;20194;-58
2023/07/13 03:50:11;;;;;;;11.70;8.23;;;14.50;99.90;;;;;;4992462;28;20538;-58
2023/07/13 03:52:37;;;;;;;11.73;8.60;;;14.50;99.90;;;;;;4992214;28;20277;-58
2023/07/13 03:55:03;;;;;;;13.17;8.57;;;14.50;99.90;;;;;;4991957;28;20564;-58
2023/07/13 03:57:28;;;;;;;9.47;7.07;;;14.50;99.90;;;;;;4990827;28;20189;-60
2023/07/13 03:59:54;;;;;;;12.60;7.10;;;14.50;99.90;;;;;;4992338;28;20422;-59
2023/07/13 04:02:20;;;;;;;12.27;7.60;;;14.60;99.90;;;;;;4991811;28;20634;-61
2023/07/13 04:04:46;;;;;;;10.80;6.93;;;14.70;99.90;;;;;;4991984;28;20215;-60
2023/07/13 04:07:12;;;;;;;14.77;6.60;;;14.70;99.90;;;;;;4991484;28;20433;-60
2023/07/13 04:09:37;;;;;;;9.10;6.37;;;14.80;99.90;;;;;;4991772;28;20186;-60
2023/07/13 04:12:03;;;;;;;10.40;6.90;;;14.80;99.90;;;;;;4992088;28;20219;-61
2023/07/13 04:14:29;;;;;;;13.90;6.97;;;14.90;99.90;;;;;;4991474;28;20185;-61
2023/07/13 04:16:55;;;;;;;10.30;6.77;;;14.90;99.90;;;;;;4991957;28;20434;-60
2023/07/13 04:19:20;;;;;;;10.63;6.37;;;14.90;99.90;;;;;;4992276;28;20183;-61
2023/07/13 04:21:46;;;;;;;14.60;5.97;;;14.90;99.90;;;;;;4991561;28;20627;-61
2023/07/13 04:24:12;;;;;;;15.70;7.20;;;15.00;99.90;;;;;;4991760;28;20184;-60
2023/07/13 04:26:38;;;;;;;8.60;6.50;;;15.00;99.90;;;;;;4991582;28;20291;-60
2023/07/13 04:29:04;;;;;;;9.30;5.90;;;15.10;99.90;;;;;;4991767;28;20426;-61
2023/07/13 04:31:30;;;;;;;16.13;6.50;;;15.00;99.90;;;;;;4992082;28;20194;-62
2023/07/13 04:33:56;;;;;;;9.77;6.03;;;15.10;99.90;;;;;;4991343;28;20412;-62
2023/07/13 04:36:22;;;;;;;15.57;6.63;;;15.10;99.90;;;;;;4991262;28;20803;-61
2023/07/13 04:38:48;;;;;;;23.80;7.10;;;15.20;99.90;;;;;;4991699;28;20223;-61
2023/07/13 04:41:15;;;;;;;11.47;6.87;;;15.30;99.90;;;;;;4991509;28;20281;-60
2023/07/13 04:43:41;;;;;;;12.07;6.17;;;15.40;99.90;;;;;;4991839;28;20417;-60
2023/07/13 04:46:11;;;;;;;14.03;6.90;;;15.50;99.90;;;;;;4991206;28;20474;-61
2023/07/13 04:48:37;;;;;;;15.00;6.70;;;15.60;99.90;;;;;;4991370;28;20426;-61
2023/07/13 04:51:03;;;;;;;12.97;6.80;;;15.60;99.90;;;;;;4991457;28;20414;-61
2023/07/13 04:53:29;;;;;;;8.90;6.40;;;15.70;99.90;;;;;;4990956;28;20183;-61
2023/07/13 04:55:55;;;;;;;14.10;6.97;;;15.80;99.90;;;;;;4991324;28;20523;-63
2023/07/13 04:58:21;;;;;;;12.50;7.00;;;15.80;99.90;;;;;;4991650;28;20507;-61
2023/07/13 05:00:47;;;;;;;9.73;6.43;;;15.90;99.90;;;;;;4991371;28;20588;-61
2023/07/13 05:03:13;;;;;;;12.40;6.13;;;16.00;99.90;;;;;;4991178;28;20422;-62
2023/07/13 05:05:38;;;;;;;12.43;6.57;;;16.00;99.90;;;;;;4991165;28;20208;-60
2023/07/13 05:08:04;;;;;;;10.33;5.97;;;16.20;74.90;;;;;;4991398;28;20192;-63
2023/07/13 05:10:30;;;;;;;10.33;6.90;;;16.30;97.50;;;;;;4991392;28;20195;-61
2023/07/13 05:12:55;;;;;;;12.07;6.13;;;16.40;83.70;;;;;;4991494;28;20215;-62
2023/07/13 05:15:22;;;;;;;10.83;6.50;;;16.50;18.40;;;;;;4991046;28;20189;-62
2023/07/13 05:17:49;;;;;;;10.73;6.37;;;16.60;1.00;;;;;;4991250;28;20204;-60
2023/07/13 05:20:15;;;;;;;14.90;7.20;;;16.70;1.00;;;;;;4993984;28;20439;-62
2023/07/13 05:22:42;;;;;;;14.97;6.70;;;16.70;1.00;;;;;;4994438;28;20922;-62
2023/07/13 05:25:08;;;;;;;9.77;6.57;;;16.80;1.00;;;;;;4994403;28;20466;-62
2023/07/13 05:27:35;;;;;;;18.03;6.53;;;16.80;1.00;;;;;;4994258;28;20918;-62
2023/07/13 05:30:01;;;;;;;10.87;7.50;;;17.00;1.00;;;;;;4994190;28;20254;-63
2023/07/13 05:32:27;;;;;;;14.60;6.37;;;17.30;1.00;;;;;;4993940;28;20423;-62
2023/07/13 05:34:52;;;;;;;11.50;6.20;;;17.40;1.00;;;;;;4994159;28;20429;-62
2023/07/13 05:37:18;;;;;;;15.20;6.87;;;17.30;99.90;;;;;;4994191;28;20180;-64
2023/07/13 05:39:44;;;;;;;15.83;7.87;;;17.10;1.00;;;;;;4994504;28;20188;-62
2023/07/13 05:42:09;;;;;;;17.73;6.30;;;16.90;1.00;;;;;;4994175;28;20681;-63
2023/07/13 05:44:35;;;;;;;11.47;6.60;;;16.80;1.00;;;;;;4994357;28;20216;-61
2023/07/13 05:47:01;;;;;;;12.73;6.93;;;16.70;1.00;;;;;;4994341;28;20190;-61
2023/07/13 05:49:26;;;;;;;16.83;7.20;;;16.70;1.00;;;;;;4993939;28;20538;-61
2023/07/13 05:51:52;;;;;;;15.07;6.80;;;16.70;5.80;;;;;;4993954;28;20180;-61
2023/07/13 05:54:18;;;;;;;14.10;7.53;;;16.70;32.20;;;;;;4993864;28;20242;-62
2023/07/13 05:56:43;;;;;;;15.90;7.00;;;16.60;16.50;;;;;;4993678;28;20420;-62
2023/07/13 05:59:09;;;;;;;14.93;6.30;;;16.60;37.30;;;;;;4994145;28;20182;-60
2023/07/13 06:01:35;;;;;;;17.33;7.37;;;16.70;57.60;;;;;;4994155;28;20192;-62
2023/07/13 06:04:00;;;;;;;19.77;7.10;;;16.70;62.30;;;;;;4993940;28;20187;-65
2023/07/13 06:06:27;;;;;;;17.20;6.70;;;16.70;32.00;;;;;;4994087;28;20228;-63
2023/07/13 06:08:52;;;;;;;13.50;6.60;;;16.70;52.00;;;;;;4993691;28;20195;-61
2023/07/13 06:11:22;;;;;;;15.17;6.87;;;16.70;87.60;;;;;;4993855;28;20415;-62
2023/07/13 06:13:47;;;;;;;17.63;7.33;;;16.80;88.70;;;;;;4993664;28;20191;-62
2023/07/13 06:16:15;;;;;;;15.70;7.07;;;16.70;13.70;;;;;;4993846;28;20422;-63
2023/07/13 06:18:41;;;;;;;20.90;6.87;;;16.70;47.30;;;;;;4993886;28;20191;-62
2023/07/13 06:21:12;;;;;;;13.60;6.47;;;16.80;34.50;;;;;;4993736;28;20430;-62
2023/07/13 06:23:38;;;;;;;11.73;6.40;;;16.80;1.00;;;;;;4993993;28;20215;-62
2023/07/13 06:26:05;;;;;;;17.83;6.63;;;16.80;8.20;;;;;;4993755;28;20490;-62
2023/07/13 06:28:31;;;;;;;15.40;6.30;;;16.90;3.40;;;;;;4993619;28;20196;-62
2023/07/13 06:30:58;;;;;;;17.70;6.53;;;16.90;1.00;;;;;;4992928;28;20418;-62
2023/07/13 06:33:24;;;;;;;14.73;6.10;;;17.00;1.00;;;;;;4993357;28;20403;-60
2023/07/13 06:35:49;;;;;;;14.50;6.37;;;17.10;8.80;;;;;;4993745;28;20523;-62
2023/07/13 06:38:15;;;;;;;14.23;5.80;;;17.20;1.00;;;;;;4993631;28;20518;-62
2023/07/13 06:40:41;;;;;;;11.53;4.97;;;17.30;1.00;;;;;;4993489;28;20184;-61
2023/07/13 06:43:07;;;;;;;12.57;5.37;;;17.40;1.00;;;;;;4993038;28;20272;-61
2023/07/13 06:45:41;;;;;;;15.80;5.53;;;17.50;1.00;;;;;;4993086;28;20473;-61
2023/07/13 06:48:07;;;;;;;17.13;6.20;;;17.60;1.00;;;;;;4993527;28;20236;-62
2023/07/13 06:50:33;;;;;;;9.70;5.03;;;17.60;1.00;;;;;;4993484;28;20410;-62
2023/07/13 06:52:59;;;;;;;17.50;6.07;;;17.60;99.90;;;;;;4993112;28;20681;-62
2023/07/13 06:55:25;;;;;;;16.63;5.43;;;17.70;99.90;;;;;;4992672;28;20478;-63
2023/07/13 06:57:51;;;;;;;17.60;5.93;;;17.80;99.90;;;;;;4992870;28;20936;-62
2023/07/13 07:00:17;;;;;;;14.00;5.00;;;17.90;99.90;;;;;;4993201;28;20423;-63
2023/07/13 07:02:42;;;;;;;11.17;5.80;;;18.00;99.90;;;;;;4992965;28;20214;-63
2023/07/13 07:05:08;;;;;;;14.43;5.93;;;18.00;39.10;;;;;;4993101;28;20504;-61
2023/07/13 07:07:34;;;;;;;21.63;5.60;;;18.10;99.90;;;;;;4992785;28;20271;-63
2023/07/13 07:09:59;;;;;;;18.23;5.60;;;18.10;99.90;;;;;;4993129;28;20185;-63
2023/07/13 07:12:25;;;;;;;10.60;4.77;;;18.30;99.90;;;;;;4992816;28;20180;-62
2023/07/13 07:14:50;;;;;;;14.03;5.20;;;18.50;1.00;;;;;;4993124;28;20218;-62
2023/07/13 07:17:16;;;;;;;12.13;4.50;;;18.70;99.90;;;;;;4993118;28;20187;-61
2023/07/13 07:19:42;;;;;;;15.00;5.40;;;19.00;99.90;;;;;;4992722;28;20188;-61
2023/07/13 07:22:07;;;;;;;7.53;4.70;;;19.30;1.00;;;;;;4992993;28;20453;-62
2023/07/13 07:24:33;;;;;;;7.43;4.50;;;19.50;99.90;;;;;;4991908;28;20255;-64
2023/07/13 07:26:59;;;;;;;13.50;5.50;;;19.80;99.90;;;;;;5006937;28;20885;-63
2023/07/13 07:29:26;;;;;;;13.57;4.40;;;20.30;99.90;;;;;;4992445;28;20236;-64
2023/07/13 07:31:52;;;;;;;20.87;4.60;;;20.50;74.50;;;;;;4992371;28;20182;-61
2023/07/13 07:34:17;;;;;;;8.40;3.70;;;20.50;1.00;;;;;;4992872;28;20808;-62
2023/07/13 07:36:43;;;;;;;17.33;5.57;;;20.60;1.00;;;;;;4992384;28;20469;-62
2023/07/13 07:39:09;;;;;;;16.13;4.40;;;20.30;1.00;;;;;;4992702;28;20185;-62
2023/07/13 07:41:34;;;;;;;21.00;4.87;;;20.50;1.00;;;;;;4990437;28;20181;-63
2023/07/13 07:44:00;;;;;;;11.60;3.63;;;20.90;1.00;;;;;;4991076;28;20545;-62
2023/07/13 07:46:25;;;;;;;10.73;4.03;;;21.10;1.00;;;;;;4992256;28;20353;-62
2023/07/13 07:48:51;;;;;;;10.10;3.63;;;21.60;1.00;;;;;;4991782;28;20642;-62
2023/07/13 07:51:16;;;;;;;18.30;5.10;;;21.60;1.00;;;;;;4992101;28;20674;-62
2023/07/13 07:53:42;;;;;;;16.83;4.13;;;21.60;1.00;;;;;;4991468;28;20180;-64
2023/07/13 07:56:09;;;;;;;11.13;4.10;;;21.50;1.00;;;;;;4992594;28;20270;-61
2023/07/13 07:58:35;;;;;;;9.40;3.47;;;21.00;1.00;;;;;;4992228;28;20270;-61
2023/07/13 08:01:05;;;;;;;13.53;4.20;;;20.80;1.00;;;;;;4992553;28;20803;-62
2023/07/13 08:03:31;;;;;;;13.97;4.43;;;21.30;1.00;;;;;;4992069;28;20182;-62
2023/07/13 08:05:57;;;;;;;15.23;3.77;;;21.60;1.00;;;;;;4991748;28;20825;-62
2023/07/13 08:08:23;;;;;;;13.47;3.67;;;22.00;1.00;;;;;;4992275;28;20426;-62
2023/07/13 08:10:49;;;;;;;12.80;4.10;;;22.60;1.00;;;;;;4991435;28;20226;-60
2023/07/13 08:13:14;;;;;;;11.03;3.70;;;23.00;1.00;;;;;;4991783;28;20412;-59
2023/07/13 08:15:40;;;;;;;6.63;3.00;;;23.00;1.00;;;;;;4991661;28;20242;-58
2023/07/13 08:18:07;;;;;;;9.33;3.20;;;22.80;1.00;;;;;;4991655;28;20211;-61
2023/07/13 08:20:36;;;;;;;6.90;3.23;;;22.50;1.00;;;;;;4991795;28;20195;-59
2023/07/13 08:23:01;;;;;;;12.40;3.60;;;22.60;1.00;;;;;;4992319;28;20424;-58
2023/07/13 08:25:27;;;;;;;10.80;3.27;;;22.50;1.00;;;;;;4991397;28;20532;-60
2023/07/13 08:27:52;;;;;;;13.10;4.27;;;22.40;1.00;;;;;;4991446;28;20210;-60
2023/07/13 08:30:18;;;;;;;10.87;3.43;;;22.20;1.00;;;;;;4991605;28;20275;-59
2023/07/13 08:32:44;;;;;;;6.10;2.70;;;22.10;1.00;;;;;;4991235;28;20191;-60
2023/07/13 08:35:09;;;;;;;11.10;3.00;;;21.90;1.00;;;;;;4991709;28;20252;-60
2023/07/13 08:37:35;;;;;;;11.80;3.63;;;21.90;1.00;;;;;;4991772;28;20422;-62
2023/07/13 08:40:00;;;;;;;9.67;3.20;;;22.60;1.00;;;;;;4991591;28;20195;-59
2023/07/13 08:42:46;;;;;;;11.33;2.90;;;23.30;1.00;;;;;;4991844;28;20215;-59
2023/07/13 08:45:24;;;;;;;6.63;2.73;;;23.30;1.00;;;;;;4991393;28;20851;-60
2023/07/13 08:48:17;;;;;;;8.00;2.80;;;23.50;1.00;;;;;;4991580;28;20514;-59
2023/07/13 08:51:32;;;;;;;10.13;3.20;;;23.70;1.00;;;;;;4991186;28;20408;-58
2023/07/13 08:54:02;;;;;;;14.53;3.50;;;23.70;1.00;;;;;;4994106;28;20515;-58
2023/07/13 08:56:29;;;;;;;12.47;3.77;;;23.60;1.00;;;;;;4991309;28;20488;-60
2023/07/13 08:59:18;;;;;;;12.40;3.00;;;23.70;1.00;;;;;;4991219;28;20453;-60
2023/07/13 09:01:51;;;;;;;9.83;2.97;;;24.00;1.00;;;;;;4991390;28;20408;-59
2023/07/13 09:04:22;;;;;;;9.60;3.13;;;23.90;1.00;;;;;;4991481;28;20811;-59
2023/07/13 09:07:11;;;;;;;9.00;3.37;;;23.80;1.00;;;;;;4991316;28;20949;-56
2023/07/13 09:09:46;;;;;;;11.10;3.53;;;23.70;1.00;;;;;;4991464;28;20761;-59
2023/07/13 09:12:26;;;;;;;6.63;2.90;;;23.70;1.00;;;;;;4991152;28;20914;-59
2023/07/13 09:14:56;;;;;;;8.10;3.20;;;23.40;1.00;;;;;;4990998;28;20449;-61
2023/07/13 09:17:45;;;;;;;9.63;2.80;;;23.70;1.00;;;;;;4990858;28;20431;-59
2023/07/13 09:20:30;;;;;;;9.17;3.40;;;24.00;1.00;;;;;;4990918;28;20431;-59
2023/07/13 09:22:57;;;;;;;5.80;2.63;;;23.70;1.00;;;;;;4991451;28;20411;-60
2023/07/13 09:25:32;;;;;;;10.90;3.40;;;23.80;1.00;;;;;;4990586;28;21014;-60
2023/07/13 09:28:17;;;;;;;11.53;3.63;;;23.70;1.00;;;;;;4990876;28;20506;-59
2023/07/13 09:31:05;;;;;;;8.70;2.93;;;24.10;1.00;;;;;;4991286;28;20506;-59
2023/07/13 09:33:31;;;;;;;5.50;2.77;;;24.90;1.00;;;;;;4990429;28;20896;-57
2023/07/13 09:36:00;;;;;;;7.50;3.00;;;25.20;1.00;;;;;;4990567;28;20439;-56
2023/07/13 09:38:29;;;;;;;6.00;2.57;;;25.80;1.00;;;;;;4990488;28;20900;-56
2023/07/13 09:41:00;;;;;;;8.60;3.40;;;26.20;1.00;;;;;;4991069;28;20420;-55
2023/07/13 09:43:28;;;;;;;6.93;2.90;;;25.70;1.00;;;;;;4990948;28;20800;-58
2023/07/13 09:45:54;;;;;;;9.50;3.17;;;25.40;1.00;;;;;;4990755;28;20464;-59
2023/07/13 09:48:20;;;;;;;10.53;3.20;;;25.30;1.00;;;;;;4990826;28;20435;-59
2023/07/13 09:50:45;;;;;;;5.40;2.80;;;25.50;1.00;;;;;;4990481;28;20191;-57
2023/07/13 09:53:13;;;;;;;9.03;3.60;;;25.40;1.00;;;;;;4990692;28;20621;-58
2023/07/13 09:55:40;;;;;;;9.90;3.10;;;25.30;1.00;;;;;;4990213;28;20776;-58
2023/07/13 09:58:14;;;;;;;8.87;3.03;;;25.80;1.00;;;;;;4990416;28;20432;-58
2023/07/13 10:00:41;;;;;;;9.00;2.97;;;26.10;1.00;;;;;;4990808;28;20452;-57
2023/07/13 10:03:27;;;;;;;7.53;2.90;;;25.90;1.00;;;;;;4990379;28;20420;-56
2023/07/13 10:05:54;;;;;;;10.80;3.23;;;25.10;1.00;;;;;;4992530;28;20482;-57
2023/07/13 10:08:24;;;;;;;8.37;3.00;;;24.40;1.00;;;;;;4993744;28;20420;-57
2023/07/13 10:10:58;;;;;;;10.30;3.10;;;24.30;1.00;;;;;;4993760;28;20418;-57
2023/07/13 10:13:31;;;;;;;4.57;2.97;;;24.30;1.00;;;;;;4993574;28;20411;-57
2023/07/13 10:15:59;;;;;;;6.43;3.50;;;24.00;1.00;;;;;;4993294;28;20422;-57
2023/07/13 10:18:25;;;;;;;15.27;3.67;;;23.80;1.00;;;;;;4993859;28;20423;-58
2023/07/13 10:21:00;;;;;;;10.43;2.90;;;24.50;1.00;;;;;;4993827;28;20495;-57
2023/07/13 10:23:30;;;;;;;7.00;3.20;;;24.70;1.00;;;;;;4993485;28;20462;-57
2023/07/13 10:25:58;;;;;;;7.33;3.23;;;24.80;1.00;;;;;;4993580;28;20551;-58
2023/07/13 10:28:32;;;;;;;6.97;2.80;;;25.20;1.00;;;;;;4993444;28;20565;-57
2023/07/13 10:31:01;;;;;;;8.00;3.10;;;25.50;1.00;;;;;;4993521;28;20416;-56
2023/07/13 10:33:26;;;;;;;6.10;2.50;;;26.00;1.00;;;;;;4993333;28;20481;-57
2023/07/13 10:36:01;;;;;;;6.70;2.43;;;26.50;1.00;;;;;;4993410;28;20428;-56
2023/07/13 10:38:28;;;;;;;5.03;2.40;;;26.60;1.00;;;;;;4993135;28;20183;-56
2023/07/13 10:41:03;;;;;;;5.03;2.53;;;26.90;99.90;;;;;;4993730;28;20408;-56
2023/07/13 10:43:36;;;;;;;4.90;2.80;;;27.20;99.90;;;;;;4993213;28;20415;-56
2023/07/13 10:46:05;;;;;;;4.73;2.40;;;27.40;99.90;;;;;;4993114;28;20971;-55
2023/07/13 10:48:34;;;;;;;5.33;2.10;;;27.50;99.90;;;;;;4992834;28;20428;-56
2023/07/13 10:51:01;;;;;;;3.40;1.93;;;27.60;99.90;;;;;;4993059;28;20455;-56
2023/07/13 10:53:32;;;;;;;5.83;2.67;;;27.90;99.90;;;;;;4993035;28;20468;-56
2023/07/13 10:56:05;;;;;;;7.67;2.43;;;28.50;99.90;;;;;;4992654;28;20421;-57
2023/07/13 10:58:41;;;;;;;4.47;2.63;;;28.60;99.90;;;;;;4992834;28;20954;-56
2023/07/13 11:01:06;;;;;;;4.03;2.23;;;28.00;99.90;;;;;;4993025;28;20857;-56
2023/07/13 11:03:45;;;;;;;4.03;2.33;;;28.20;99.90;;;;;;4993229;28;20457;-56
2023/07/13 11:06:16;;;;;;;9.17;3.30;;;27.40;99.90;;;;;;4992744;28;20224;-56
2023/07/13 11:08:47;;;;;;;4.67;2.40;;;26.60;99.90;;;;;;4992909;28;20454;-55
2023/07/13 11:11:34;;;;;;;5.00;2.80;;;25.80;99.90;;;;;;4992644;28;20462;-56
2023/07/13 11:14:05;;;;;;;3.80;2.30;;;25.60;99.90;;;;;;4991422;28;20487;-52
2023/07/13 11:16:42;;;;;;;9.50;2.50;;;25.40;99.90;;;;;;4992135;28;20408;-57
2023/07/13 11:19:26;;;;;;;6.47;2.80;;;24.60;99.90;;;;;;4992203;28;20415;-61
2023/07/13 11:22:13;;;;;;;5.07;2.40;;;24.40;99.90;;;;;;4992870;28;20511;-59
2023/07/13 11:24:55;;;;;;;4.20;2.47;;;24.40;99.90;;;;;;4992465;28;21028;-59
2023/07/13 11:27:30;;;;;;;6.80;2.77;;;24.30;99.90;;;;;;4991315;28;20427;-60
2023/07/13 11:30:09;;;;;;;10.37;2.67;;;24.10;99.90;;;;;;4992620;28;20408;-62
2023/07/13 11:32:35;;;;;;;4.50;2.00;;;25.00;99.90;;;;;;4992564;28;20410;-61
2023/07/13 11:35:00;;;;;;;6.23;2.50;;;26.20;99.90;;;;;;4992391;28;20421;-59
2023/07/13 11:37:29;;;;;;;5.90;2.30;;;26.60;99.90;;;;;;4992414;28;20184;-58
2023/07/13 11:39:54;;;;;;;5.90;2.23;;;26.10;99.90;;;;;;4992481;28;20188;-59
2023/07/13 11:42:21;;;;;;;6.43;2.80;;;25.40;99.90;;;;;;4992208;28;20409;-59
2023/07/13 11:44:51;;;;;;;5.43;2.50;;;24.80;99.90;;;;;;4992388;28;20213;-60
2023/07/13 11:47:20;;;;;;;4.30;2.70;;;24.70;99.90;;;;;;4992338;28;20416;-59
2023/07/13 11:49:49;;;;;;;5.87;2.30;;;24.60;1.00;;;;;;4992270;28;20420;-57
2023/07/13 11:52:18;;;;;;;5.53;2.30;;;24.20;1.00;;;;;;4992470;28;20416;-61
2023/07/13 11:54:50;;;;;;;4.87;2.60;;;23.80;99.90;;;;;;4991488;28;20472;-60
2023/07/13 11:57:27;;;;;;;3.33;2.30;;;23.40;99.90;;;;;;4992208;28;20405;-61
2023/07/13 11:59:54;;;;;;;4.83;2.50;;;23.20;99.90;;;;;;4992388;28;20551;-56
2023/07/13 12:02:30;;;;;;;4.83;2.57;;;23.20;99.90;;;;;;4992073;28;20521;-59
2023/07/13 12:04:57;;;;;;;4.80;2.30;;;23.30;99.90;;;;;;4992307;28;20459;-56
2023/07/13 12:07:22;;;;;;;12.00;3.27;;;23.20;99.90;;;;;;4992043;28;20424;-56
2023/07/13 12:09:50;;;;;;;6.00;3.10;;;23.20;99.90;;;;;;4991866;28;20421;-60
2023/07/13 12:12:22;;;;;;;8.13;3.40;;;22.90;99.90;;;;;;4992035;28;20189;-59
2023/07/13 12:14:51;;;;;;;14.03;2.87;;;22.50;1.00;;;;;;4991763;28;20464;-59
2023/07/13 12:17:25;;;;;;;9.87;3.33;;;21.40;1.00;;;;;;4991710;28;20450;-59
2023/07/13 12:19:52;;;;;;;14.17;3.70;;;20.20;1.00;;;;;;4992152;28;20525;-58
2023/07/13 12:22:20;;;;;;;17.00;3.10;;;19.30;1.00;;;;;;4991746;28;20419;-59
2023/07/13 12:24:47;;;;;;;9.03;3.40;;;18.40;11.90;;;;;;4991742;28;20466;-60
2023/07/13 12:27:24;;;;;;;5.90;2.93;;;18.00;54.70;;;;;;4990990;28;20509;-62
2023/07/13 12:29:57;;;;;;;6.40;3.00;;;17.60;99.90;;;;;;4991349;28;20601;-63
2023/07/13 12:32:25;;;;;;;4.83;3.33;;;17.30;99.90;;;;;;4990741;28;20423;-58
2023/07/13 12:34:56;;;;;;;4.90;3.17;;;17.20;10.10;;;;;;4989125;28;21122;-60
2023/07/13 12:37:23;;;;;;;7.63;3.87;;;17.20;99.90;;;;;;4991621;28;20423;-58
2023/07/13 12:39:50;;;;;;;4.73;3.33;;;17.40;1.00;;;;;;4991717;28;20434;-60
2023/07/13 12:42:27;;;;;;;7.37;3.80;;;17.90;1.00;;;;;;4991719;28;20869;-59
2023/07/13 12:44:56;;;;;;;7.70;3.60;;;19.00;1.00;;;;;;4991223;28;20459;-58
2023/07/13 12:47:22;;;;;;;7.90;3.60;;;20.30;99.90;;;;;;4991713;28;20506;-59